Time;durP1;ratioP1;P1;durP2;ratioP2;P2;SDS_P1;SDS_P2;PMS_P1;PMS_P2;Temp;Humidity;BMP_temperature;BMP_pressure;BME280_temperature;BME280_humidity;BME280_pressure;Samples;Min_cycle;Max_cycle;Signal;HPM_P1;HPM_P2
2023/12/02 00:02:16;;;;;;;40.63;18.85;;;;;;;-2.12;92.38;100634.53;5022878;28;20425;-72
2023/12/02 00:04:41;;;;;;;37.80;18.77;;;;;;;-2.14;92.07;100633.00;5004705;28;20050;-72
2023/12/02 00:07:07;;;;;;;45.33;19.98;;;;;;;-2.17;93.53;100627.19;5002418;28;20033;-72
2023/12/02 00:09:33;;;;;;;46.50;20.10;;;;;;;-2.13;94.02;100635.44;5003336;28;20026;-72
2023/12/02 00:11:59;;;;;;;40.75;19.60;;;;;;;-2.12;94.12;100636.28;5012631;28;20376;-72
2023/12/02 00:14:24;;;;;;;46.45;20.50;;;;;;;-2.11;93.38;100640.44;5010811;28;20034;-72
2023/12/02 00:16:50;;;;;;;40.00;19.00;;;;;;;-2.14;93.72;100631.25;5009294;28;20081;-73
2023/12/02 00:19:15;;;;;;;42.03;20.08;;;;;;;-2.13;93.76;100634.63;5015191;28;20049;-72
2023/12/02 00:21:40;;;;;;;41.42;18.70;;;;;;;-2.17;92.68;100632.25;5007547;28;20042;-72
2023/12/02 00:24:06;;;;;;;46.10;19.70;;;;;;;-2.24;92.65;100630.91;5016612;28;20029;-72
2023/12/02 00:26:32;;;;;;;40.17;18.98;;;;;;;-2.20;93.43;100629.06;5014747;28;20030;-73
2023/12/02 00:28:57;;;;;;;41.53;18.90;;;;;;;-2.16;94.58;100628.81;5018282;28;20512;-72
2023/12/02 00:31:23;;;;;;;44.90;21.35;;;;;;;-2.03;95.18;100633.25;5010783;28;20037;-72
2023/12/02 00:33:48;;;;;;;46.45;20.45;;;;;;;-2.13;94.73;100640.50;5015526;28;20064;-71
2023/12/02 00:36:14;;;;;;;48.03;21.02;;;;;;;-2.17;95.19;100637.34;5014233;28;20036;-71
2023/12/02 00:38:39;;;;;;;40.63;18.58;;;;;;;-2.09;94.73;100649.66;5011619;28;20763;-72
2023/12/02 00:41:09;;;;;;;40.15;18.23;;;;;;;-2.03;94.10;100636.63;5016491;28;20041;-73
2023/12/02 00:43:34;;;;;;;41.05;18.77;;;;;;;-2.09;95.09;100638.63;4995487;28;20044;-72
2023/12/02 00:45:59;;;;;;;42.20;19.17;;;;;;;-2.13;94.33;100639.69;5017246;28;20045;-71
2023/12/02 00:48:25;;;;;;;42.47;19.23;;;;;;;-2.17;95.11;100639.03;5011124;28;20034;-72
2023/12/02 00:50:51;;;;;;;41.33;19.17;;;;;;;-2.10;94.88;100648.00;5014331;28;20030;-73
2023/12/02 00:53:16;;;;;;;44.92;18.27;;;;;;;-2.09;94.88;100648.81;5012078;28;20037;-73
2023/12/02 00:55:42;;;;;;;40.63;18.67;;;;;;;-2.11;95.35;100650.59;5012311;28;20030;-72
2023/12/02 00:58:07;;;;;;;41.10;18.45;;;;;;;-2.09;93.35;100643.72;5016034;28;20503;-72
2023/12/02 01:00:32;;;;;;;44.25;19.63;;;;;;;-2.16;93.30;100646.59;5005279;28;20037;-71
2023/12/02 01:02:58;;;;;;;41.92;17.98;;;;;;;-2.15;93.72;100642.31;5015785;28;20428;-72
2023/12/02 01:05:23;;;;;;;38.30;17.80;;;;;;;-2.10;93.64;100642.09;5012010;28;20104;-72
2023/12/02 01:07:49;;;;;;;40.97;18.00;;;;;;;-2.08;93.58;100647.91;5010077;28;20042;-72
2023/12/02 01:10:15;;;;;;;38.08;18.00;;;;;;;-2.07;94.31;100641.91;5016079;28;20034;-71
2023/12/02 01:12:40;;;;;;;36.92;17.77;;;;;;;-2.15;94.99;100639.78;5011193;28;20037;-71
2023/12/02 01:15:06;;;;;;;43.50;19.33;;;;;;;-2.18;95.10;100652.66;4992109;28;20061;-71
2023/12/02 01:17:32;;;;;;;37.08;17.45;;;;;;;-2.09;94.78;100647.09;5010207;28;20529;-71
2023/12/02 01:19:57;;;;;;;36.95;17.33;;;;;;;-2.14;94.25;100640.63;5003045;28;20034;-72
2023/12/02 01:22:23;;;;;;;41.67;17.70;;;;;;;-2.10;94.39;100644.63;5009380;28;20026;-72
2023/12/02 01:24:48;;;;;;;39.15;17.77;;;;;;;-2.20;94.38;100655.25;5006205;28;20169;-72
2023/12/02 01:27:13;;;;;;;36.55;17.52;;;;;;;-2.16;93.69;100651.66;5011878;28;20060;-73
2023/12/02 01:29:39;;;;;;;38.28;17.13;;;;;;;-2.05;93.54;100653.66;5004643;28;20050;-72
2023/12/02 01:32:05;;;;;;;40.75;18.35;;;;;;;-2.18;93.18;100661.09;5012411;28;20025;-72
2023/12/02 01:34:31;;;;;;;37.15;17.17;;;;;;;-2.26;94.38;100663.19;5005706;28;20485;-73
2023/12/02 01:36:56;;;;;;;38.47;18.52;;;;;;;-2.15;94.28;100662.66;5008950;28;20033;-72
2023/12/02 01:39:22;;;;;;;33.35;15.93;;;;;;;-2.24;93.51;100668.19;5012308;28;20025;-73
2023/12/02 01:41:47;;;;;;;40.22;18.33;;;;;;;-2.27;93.60;100661.56;5009322;28;20520;-72
2023/12/02 01:44:13;;;;;;;33.50;16.52;;;;;;;-2.22;92.86;100669.78;5007920;28;20068;-72
2023/12/02 01:46:38;;;;;;;36.70;17.20;;;;;;;-2.22;91.56;100664.69;5008787;28;20049;-72
2023/12/02 01:49:06;;;;;;;36.85;16.92;;;;;;;-2.18;91.71;100670.44;5008456;28;20164;-72
2023/12/02 01:51:32;;;;;;;33.38;16.25;;;;;;;-2.11;91.07;100669.25;5017242;28;20084;-72
2023/12/02 01:53:57;;;;;;;31.17;15.35;;;;;;;-2.18;90.85;100675.53;5016455;28;20068;-72
2023/12/02 01:56:23;;;;;;;31.70;15.30;;;;;;;-2.17;90.48;100678.00;5013797;28;20041;-72
2023/12/02 01:58:48;;;;;;;31.42;14.70;;;;;;;-2.17;89.87;100677.16;5011788;28;20057;-72
2023/12/02 02:01:14;;;;;;;31.02;14.98;;;;;;;-2.17;90.60;100680.53;5013941;28;20045;-72
2023/12/02 02:03:39;;;;;;;39.30;18.50;;;;;;;-2.21;90.03;100681.56;5012798;28;20034;-73
2023/12/02 02:06:09;;;;;;;43.20;17.70;;;;;;;-2.24;89.66;100681.72;5008319;28;20041;-72
2023/12/02 02:08:34;;;;;;;39.45;17.40;;;;;;;-2.18;88.87;100675.53;5010226;28;20050;-72
2023/12/02 02:11:00;;;;;;;41.65;18.13;;;;;;;-2.18;88.71;100685.69;5015989;28;21003;-72
2023/12/02 02:13:27;;;;;;;50.22;20.10;;;;;;;-2.13;88.33;100682.91;4989784;28;20464;-72
2023/12/02 02:15:53;;;;;;;47.38;19.73;;;;;;;-2.13;88.06;100687.97;5004214;28;20041;-72
2023/12/02 02:18:18;;;;;;;49.72;19.30;;;;;;;-2.14;88.21;100689.72;5009725;28;20029;-72
2023/12/02 02:20:49;;;;;;;45.95;19.90;;;;;;;-2.13;88.11;100698.16;5009609;28;20045;-73
2023/12/02 02:23:15;;;;;;;63.15;25.92;;;;;;;-2.07;87.28;100692.75;5010514;28;20065;-72
2023/12/02 02:25:41;;;;;;;37.83;16.80;;;;;;;-2.21;85.81;100685.81;5011141;28;20052;-72
2023/12/02 02:28:06;;;;;;;39.78;17.50;;;;;;;-2.21;87.06;100696.81;5007652;28;20489;-72
2023/12/02 02:30:32;;;;;;;35.45;17.27;;;;;;;-2.24;88.18;100696.97;5023695;28;20382;-73
2023/12/02 02:32:57;;;;;;;45.08;18.52;;;;;;;-2.27;88.79;100694.56;5011297;28;20037;-72
2023/12/02 02:35:23;;;;;;;86.80;32.72;;;;;;;-2.27;90.27;100693.75;5006491;28;20053;-70
2023/12/02 02:37:49;;;;;;;78.25;29.65;;;;;;;-2.23;90.34;100702.88;5010872;28;20137;-72
2023/12/02 02:40:14;;;;;;;36.40;16.65;;;;;;;-2.24;89.38;100707.13;5008657;28;20033;-72
2023/12/02 02:42:41;;;;;;;45.42;21.52;;;;;;;-2.25;89.46;100708.03;5010202;28;20038;-72
2023/12/02 02:45:06;;;;;;;52.90;22.95;;;;;;;-2.22;89.83;100699.44;5013653;28;20182;-72
2023/12/02 02:47:32;;;;;;;35.00;16.52;;;;;;;-2.23;88.63;100695.25;5018976;28;20634;-72
2023/12/02 02:49:57;;;;;;;39.60;16.70;;;;;;;-2.22;88.39;100701.97;5008496;28;20053;-72
2023/12/02 02:52:23;;;;;;;36.30;17.00;;;;;;;-2.22;89.37;100707.88;5008011;28;20026;-72
2023/12/02 02:54:48;;;;;;;40.17;18.17;;;;;;;-2.24;90.26;100699.50;5006304;28;20049;-72
2023/12/02 02:57:14;;;;;;;40.50;18.65;;;;;;;-2.10;90.87;100703.09;5012764;28;20041;-72
2023/12/02 02:59:39;;;;;;;37.20;17.88;;;;;;;-2.24;90.12;100708.84;5012852;28;20037;-72
2023/12/02 03:02:05;;;;;;;34.42;15.25;;;;;;;-2.26;90.88;100711.47;5009591;28;20037;-73
2023/12/02 03:04:30;;;;;;;38.70;18.55;;;;;;;-2.26;91.48;100706.41;5012489;28;20040;-73
2023/12/02 03:06:56;;;;;;;43.83;21.85;;;;;;;-2.16;92.00;100706.75;5015487;28;20034;-72
2023/12/02 03:09:21;;;;;;;31.67;15.02;;;;;;;-2.21;89.76;100706.16;5017244;28;20030;-72
2023/12/02 03:11:48;;;;;;;34.30;16.20;;;;;;;-2.19;89.48;100715.34;5013612;28;20041;-72
2023/12/02 03:14:14;;;;;;;35.95;17.83;;;;;;;-2.13;89.57;100709.13;5015710;28;20037;-73
2023/12/02 03:16:39;;;;;;;31.85;15.45;;;;;;;-2.18;89.40;100706.81;4994739;28;20052;-72
2023/12/02 03:19:04;;;;;;;28.83;13.85;;;;;;;-2.10;87.69;100708.16;5007156;28;20108;-71
2023/12/02 03:21:30;;;;;;;27.55;13.32;;;;;;;-2.16;86.36;100709.28;5012221;28;20042;-72
2023/12/02 03:23:55;;;;;;;26.65;13.57;;;;;;;-2.26;85.64;100698.78;5003135;28;20045;-72
2023/12/02 03:26:23;;;;;;;29.25;14.60;;;;;;;-2.28;85.92;100702.25;5009562;28;20452;-72
2023/12/02 03:28:48;;;;;;;29.77;13.75;;;;;;;-2.37;87.39;100699.28;5004805;28;20499;-72
2023/12/02 03:31:14;;;;;;;27.98;13.88;;;;;;;-2.24;87.88;100704.59;5007962;28;20030;-72
2023/12/02 03:33:39;;;;;;;23.58;12.60;;;;;;;-2.30;88.29;100709.97;5005419;28;20033;-72
2023/12/02 03:36:05;;;;;;;24.27;12.48;;;;;;;-2.34;88.34;100716.09;4999721;28;20548;-72
2023/12/02 03:38:30;;;;;;;28.92;12.40;;;;;;;-2.35;88.65;100715.28;5003977;28;20034;-72
2023/12/02 03:40:56;;;;;;;25.00;12.02;;;;;;;-2.34;88.81;100716.09;5007408;28;20041;-72
2023/12/02 03:43:21;;;;;;;22.38;11.57;;;;;;;-2.31;88.19;100710.06;5007797;28;20068;-72
2023/12/02 03:45:47;;;;;;;28.92;12.05;;;;;;;-2.30;88.52;100707.41;5031146;28;20030;-72
2023/12/02 03:48:12;;;;;;;26.92;12.70;;;;;;;-2.25;90.01;100720.72;5004532;28;20045;-72
2023/12/02 03:50:38;;;;;;;26.73;13.27;;;;;;;-2.26;90.34;100724.19;5009255;28;20040;-72
2023/12/02 03:53:04;;;;;;;29.08;13.40;;;;;;;-2.27;91.27;100726.78;5005477;28;20040;-72
2023/12/02 03:55:29;;;;;;;27.50;13.50;;;;;;;-2.27;91.77;100725.06;5014355;28;20042;-72
2023/12/02 03:57:55;;;;;;;30.35;14.50;;;;;;;-2.24;92.02;100726.63;5015391;28;20042;-73
2023/12/02 04:00:20;;;;;;;28.13;13.60;;;;;;;-2.26;92.34;100728.41;5008624;28;20038;-73
2023/12/02 04:02:46;;;;;;;30.27;12.05;;;;;;;-2.25;92.29;100718.19;5007893;28;20030;-73
2023/12/02 04:05:14;;;;;;;30.33;12.77;;;;;;;-2.26;91.83;100729.25;5009240;28;20092;-73
2023/12/02 04:07:40;;;;;;;24.55;11.95;;;;;;;-2.28;91.88;100727.66;5014018;28;20158;-73
2023/12/02 04:10:06;;;;;;;29.27;12.57;;;;;;;-2.28;92.64;100737.84;5006958;28;20440;-73
2023/12/02 04:12:34;;;;;;;26.50;12.57;;;;;;;-2.22;92.68;100729.94;5015861;28;20029;-73
2023/12/02 04:14:59;;;;;;;25.00;12.13;;;;;;;-2.19;92.18;100735.66;5007473;28;20049;-73
2023/12/02 04:17:24;;;;;;;25.48;11.95;;;;;;;-2.25;91.92;100735.97;5006497;28;20038;-73
2023/12/02 04:19:50;;;;;;;25.60;11.50;;;;;;;-2.30;92.98;100742.97;5006640;28;20046;-73
2023/12/02 04:22:16;;;;;;;30.30;13.23;;;;;;;-2.23;92.43;100746.88;5005631;28;20069;-72
2023/12/02 04:24:42;;;;;;;27.08;12.90;;;;;;;-2.29;92.05;100748.91;5009383;28;20100;-72
2023/12/02 04:27:07;;;;;;;27.90;12.75;;;;;;;-2.32;92.95;100752.41;5011819;28;20042;-72
2023/12/02 04:29:36;;;;;;;23.35;11.68;;;;;;;-2.28;93.64;100764.09;5010469;28;20126;-72
2023/12/02 04:32:03;;;;;;;27.88;13.45;;;;;;;-2.29;93.47;100764.97;5005658;28;20515;-73
2023/12/02 04:34:30;;;;;;;24.73;11.95;;;;;;;-2.26;93.48;100763.97;5003641;28;20044;-73
2023/12/02 04:36:56;;;;;;;27.25;13.13;;;;;;;-2.23;94.02;100772.28;5006433;28;20153;-72
2023/12/02 04:39:21;;;;;;;29.70;13.05;;;;;;;-2.26;93.57;100771.59;5007260;28;20125;-72
2023/12/02 04:41:47;;;;;;;26.55;12.77;;;;;;;-2.23;92.88;100771.47;5006230;28;20033;-73
2023/12/02 04:44:12;;;;;;;28.63;13.13;;;;;;;-2.23;91.85;100779.09;4994883;28;20029;-73
2023/12/02 04:46:38;;;;;;;28.65;13.15;;;;;;;-2.28;91.49;100775.94;5007747;28;20029;-72
2023/12/02 04:49:03;;;;;;;25.10;12.35;;;;;;;-2.26;91.45;100776.69;5007916;28;20385;-73
2023/12/02 04:51:29;;;;;;;28.52;13.43;;;;;;;-2.24;91.55;100780.81;5013549;28;20032;-72
2023/12/02 04:53:54;;;;;;;28.08;13.10;;;;;;;-2.25;91.43;100781.69;5008690;28;20535;-73
2023/12/02 04:56:20;;;;;;;23.77;12.00;;;;;;;-2.29;90.66;100775.13;5001742;28;20033;-72
2023/12/02 04:58:45;;;;;;;28.00;13.50;;;;;;;-2.26;90.10;100787.69;5021424;28;20034;-72
2023/12/02 05:01:10;;;;;;;27.02;13.77;;;;;;;-2.26;90.56;100794.47;5009942;28;20029;-73
2023/12/02 05:03:36;;;;;;;24.17;12.10;;;;;;;-2.29;91.11;100798.00;5010263;28;20492;-73
2023/12/02 05:06:01;;;;;;;26.15;12.02;;;;;;;-2.23;91.43;100799.41;5010823;28;21287;-73
2023/12/02 05:08:27;;;;;;;23.80;11.57;;;;;;;-2.24;90.86;100797.75;5011390;28;20033;-73
2023/12/02 05:10:52;;;;;;;22.90;11.88;;;;;;;-2.28;91.46;100801.34;5013735;28;20037;-71
2023/12/02 05:13:18;;;;;;;25.77;12.35;;;;;;;-2.23;90.74;100795.16;5013719;28;20033;-73
2023/12/02 05:15:44;;;;;;;24.13;11.82;;;;;;;-2.25;90.47;100786.78;5017871;28;20037;-72
2023/12/02 05:18:09;;;;;;;27.95;12.60;;;;;;;-2.29;91.51;100802.25;5011403;28;20129;-74
2023/12/02 05:20:35;;;;;;;24.10;11.88;;;;;;;-2.26;90.51;100799.53;5008023;28;20412;-72
2023/12/02 05:23:00;;;;;;;26.63;12.85;;;;;;;-2.30;90.10;100806.50;5012736;28;20041;-73
2023/12/02 05:25:26;;;;;;;23.95;12.25;;;;;;;-2.32;90.54;100813.38;5011194;28;20084;-72
2023/12/02 05:27:51;;;;;;;20.40;11.40;;;;;;;-2.33;90.57;100819.34;5014747;28;20033;-73
2023/12/02 05:30:18;;;;;;;28.83;12.75;;;;;;;-2.30;90.64;100816.66;5014935;28;20053;-72
2023/12/02 05:32:43;;;;;;;26.13;11.93;;;;;;;-2.21;90.07;100818.75;5012287;28;20033;-73
2023/12/02 05:35:11;;;;;;;19.02;9.80;;;;;;;-2.44;87.42;100817.31;5007407;28;20045;-72
2023/12/02 05:37:38;;;;;;;19.50;9.30;;;;;;;-2.43;85.82;100813.91;5015339;28;20026;-72
2023/12/02 05:40:04;;;;;;;26.45;11.18;;;;;;;-2.37;86.98;100817.88;5006923;28;20034;-73
2023/12/02 05:42:30;;;;;;;23.23;12.05;;;;;;;-2.40;87.81;100818.00;5014395;28;20030;-73
2023/12/02 05:44:55;;;;;;;23.23;11.52;;;;;;;-2.41;88.81;100817.19;5014085;28;20113;-73
2023/12/02 05:47:20;;;;;;;22.50;11.70;;;;;;;-2.38;89.30;100823.81;5013875;28;20036;-73
2023/12/02 05:49:46;;;;;;;20.63;10.52;;;;;;;-2.38;88.36;100822.09;5014978;28;20588;-72
2023/12/02 05:52:11;;;;;;;22.40;11.48;;;;;;;-2.37;87.98;100822.94;5007417;28;20100;-73
2023/12/02 05:54:37;;;;;;;24.60;11.75;;;;;;;-2.43;87.73;100829.13;5011411;28;20446;-72
2023/12/02 05:57:02;;;;;;;24.52;11.77;;;;;;;-2.40;88.65;100830.69;5009422;28;20126;-72
2023/12/02 05:59:28;;;;;;;24.42;12.07;;;;;;;-2.43;89.21;100830.81;5012373;28;20175;-73
2023/12/02 06:01:53;;;;;;;23.33;12.18;;;;;;;-2.41;88.67;100831.56;5010077;28;20057;-72
2023/12/02 06:04:19;;;;;;;21.50;12.07;;;;;;;-2.41;88.63;100832.41;5016228;28;20036;-73
2023/12/02 06:06:46;;;;;;;24.13;11.07;;;;;;;-2.45;89.52;100836.00;5005398;28;20037;-73
2023/12/02 06:09:11;;;;;;;25.08;11.85;;;;;;;-2.43;89.46;100838.44;5010541;28;21364;-73
2023/12/02 06:11:37;;;;;;;24.80;11.48;;;;;;;-2.44;89.83;100831.75;5009727;28;20034;-72
2023/12/02 06:14:02;;;;;;;26.02;12.10;;;;;;;-2.40;89.91;100838.31;5007504;28;20045;-73
2023/12/02 06:16:28;;;;;;;26.92;12.80;;;;;;;-2.43;90.43;100841.00;5008920;28;20034;-73
2023/12/02 06:18:53;;;;;;;26.58;12.88;;;;;;;-2.47;90.18;100847.09;5012757;28;20088;-73
2023/12/02 06:21:19;;;;;;;26.13;12.48;;;;;;;-2.50;89.94;100842.19;5010727;28;20401;-73
2023/12/02 06:23:44;;;;;;;25.48;13.18;;;;;;;-2.45;88.76;100835.16;5017820;28;20041;-72
2023/12/02 06:26:10;;;;;;;23.73;12.27;;;;;;;-2.48;89.80;100845.47;5015343;28;20046;-72
2023/12/02 06:28:35;;;;;;;26.85;11.98;;;;;;;-2.49;90.55;100841.28;5005100;28;20033;-72
2023/12/02 06:31:00;;;;;;;26.33;12.80;;;;;;;-2.46;90.44;100849.59;5013491;28;20030;-73
2023/12/02 06:33:26;;;;;;;26.90;12.40;;;;;;;-2.47;90.65;100847.09;5006553;28;20022;-73
2023/12/02 06:35:52;;;;;;;27.95;12.82;;;;;;;-2.51;90.73;100851.50;5014730;28;20478;-73
2023/12/02 06:38:17;;;;;;;30.92;14.57;;;;;;;-2.48;90.65;100858.19;5010159;28;20042;-73
2023/12/02 06:40:42;;;;;;;29.83;14.30;;;;;;;-2.53;91.22;100853.28;5011432;28;20045;-73
2023/12/02 06:43:10;;;;;;;28.08;13.65;;;;;;;-2.46;90.62;100862.28;5011393;28;20034;-73
2023/12/02 06:45:36;;;;;;;30.77;14.10;;;;;;;-2.50;90.61;100863.31;5008048;28;20107;-73
2023/12/02 06:48:02;;;;;;;29.55;13.45;;;;;;;-2.50;91.18;100870.13;5013070;28;20472;-73
2023/12/02 06:50:27;;;;;;;32.67;13.63;;;;;;;-2.55;91.46;100872.84;5010739;28;20065;-73
2023/12/02 06:52:53;;;;;;;26.75;13.60;;;;;;;-2.50;91.65;100870.94;5015377;28;20083;-72
2023/12/02 06:55:18;;;;;;;28.48;14.15;;;;;;;-2.50;91.95;100881.09;5007861;28;20045;-72
2023/12/02 06:57:44;;;;;;;32.08;14.10;;;;;;;-2.52;92.39;100887.97;5015660;28;20033;-72
2023/12/02 07:00:10;;;;;;;32.20;14.98;;;;;;;-2.47;91.86;100883.47;4993724;28;20037;-72
2023/12/02 07:02:36;;;;;;;30.30;13.68;;;;;;;-2.43;91.63;100889.25;5014593;28;20038;-72
2023/12/02 07:05:02;;;;;;;30.88;15.40;;;;;;;-2.50;91.52;100898.88;5007716;28;20045;-72
2023/12/02 07:07:27;;;;;;;32.13;14.68;;;;;;;-2.57;91.97;100900.03;5005958;28;20034;-72
2023/12/02 07:09:53;;;;;;;30.02;14.05;;;;;;;-2.61;92.50;100911.22;5011089;28;20041;-73
2023/12/02 07:12:18;;;;;;;32.08;14.45;;;;;;;-2.61;92.79;100913.78;5021592;28;20041;-72
2023/12/02 07:14:44;;;;;;;32.47;15.43;;;;;;;-2.62;93.22;100925.66;5011965;28;20040;-72
2023/12/02 07:17:09;;;;;;;29.75;14.27;;;;;;;-2.63;93.63;100929.06;5011343;28;20025;-73
2023/12/02 07:19:34;;;;;;;31.55;14.52;;;;;;;-2.57;93.64;100933.06;5009954;28;20037;-73
2023/12/02 07:22:00;;;;;;;30.33;14.20;;;;;;;-2.55;93.75;100939.69;5010404;28;20030;-72
2023/12/02 07:24:25;;;;;;;34.10;14.23;;;;;;;-2.56;94.13;100934.72;5009611;28;20044;-73
2023/12/02 07:26:51;;;;;;;35.05;15.65;;;;;;;-2.49;94.33;100938.59;5009077;28;20034;-72
2023/12/02 07:29:16;;;;;;;31.08;14.95;;;;;;;-2.58;94.14;100946.63;5009605;28;20084;-72
2023/12/02 07:31:44;;;;;;;31.90;15.35;;;;;;;-2.62;94.86;100945.13;5009367;28;20033;-72
2023/12/02 07:34:09;;;;;;;28.88;14.02;;;;;;;-2.61;94.60;100941.69;5009153;28;20033;-72
2023/12/02 07:36:35;;;;;;;30.48;15.57;;;;;;;-2.57;94.88;100946.56;5024465;28;20052;-72
2023/12/02 07:39:02;;;;;;;34.88;14.88;;;;;;;-2.49;94.82;100950.47;5009464;28;20049;-73
2023/12/02 07:41:27;;;;;;;37.53;16.92;;;;;;;-2.55;95.09;100943.97;5006103;28;20376;-72
2023/12/02 07:43:52;;;;;;;30.30;15.05;;;;;;;-2.47;94.46;100944.44;5003169;28;20038;-72
2023/12/02 07:46:18;;;;;;;33.15;14.65;;;;;;;-2.54;94.57;100940.53;5009595;28;20493;-73
2023/12/02 07:48:43;;;;;;;30.23;14.63;;;;;;;-2.59;94.85;100929.75;5009417;28;20547;-72
2023/12/02 07:51:09;;;;;;;29.85;14.68;;;;;;;-2.61;95.60;100931.53;5010555;28;20493;-73
2023/12/02 07:53:34;;;;;;;27.35;13.75;;;;;;;-2.63;95.80;100941.75;5011869;28;20450;-73
2023/12/02 07:56:00;;;;;;;30.48;14.20;;;;;;;-2.60;95.79;100944.19;5008763;28;20038;-72
2023/12/02 07:58:25;;;;;;;31.33;15.30;;;;;;;-2.51;95.70;100950.53;5013408;28;20080;-72
2023/12/02 08:00:51;;;;;;;32.53;14.27;;;;;;;-2.55;95.94;100957.47;4999220;28;20506;-72
2023/12/02 08:03:16;;;;;;;31.98;14.88;;;;;;;-2.63;95.68;100959.53;5012608;28;20034;-72
2023/12/02 08:05:43;;;;;;;26.02;12.50;;;;;;;-2.65;96.27;100974.03;5008765;28;20038;-72
2023/12/02 08:08:09;;;;;;;33.50;15.20;;;;;;;-2.64;96.38;100974.84;5006760;28;20049;-73
2023/12/02 08:10:35;;;;;;;31.63;13.95;;;;;;;-2.65;96.82;100976.56;5012126;28;20042;-73
2023/12/02 08:13:00;;;;;;;33.67;14.63;;;;;;;-2.63;96.92;100973.97;5012150;28;20045;-72
2023/12/02 08:15:26;;;;;;;32.80;13.77;;;;;;;-2.65;97.24;100976.56;5017439;28;20037;-72
2023/12/02 08:17:51;;;;;;;32.22;14.57;;;;;;;-2.62;97.33;100978.97;5014221;28;20044;-72
2023/12/02 08:20:17;;;;;;;30.10;14.07;;;;;;;-2.67;97.23;100977.53;4993274;28;20038;-73
2023/12/02 08:22:42;;;;;;;30.33;14.35;;;;;;;-2.70;97.46;100985.25;5011692;28;20033;-72
2023/12/02 08:25:08;;;;;;;33.00;14.70;;;;;;;-2.70;97.62;100990.34;5010032;28;20401;-73
2023/12/02 08:27:33;;;;;;;32.13;14.10;;;;;;;-2.73;97.89;100993.84;5008977;28;20488;-72
2023/12/02 08:29:59;;;;;;;33.28;14.13;;;;;;;-2.75;98.33;100998.97;5009480;28;20366;-72
2023/12/02 08:32:24;;;;;;;34.72;14.20;;;;;;;-2.76;98.54;101004.13;5009523;28;20543;-72
2023/12/02 08:34:50;;;;;;;29.45;14.07;;;;;;;-2.79;98.96;100999.16;5004015;28;20046;-73
2023/12/02 08:37:15;;;;;;;34.67;15.48;;;;;;;-2.72;98.54;100999.75;5009375;28;20034;-73
2023/12/02 08:39:40;;;;;;;35.65;14.93;;;;;;;-2.68;98.32;101004.59;5013572;28;21586;-73
2023/12/02 08:42:06;;;;;;;38.80;14.60;;;;;;;-2.65;97.21;101004.47;5015799;28;20038;-73
2023/12/02 08:44:31;;;;;;;33.00;15.18;;;;;;;-2.65;97.86;101011.28;5010551;28;20041;-73
2023/12/02 08:47:00;;;;;;;32.90;14.93;;;;;;;-2.66;98.03;101015.53;5013590;28;20037;-73
2023/12/02 08:49:26;;;;;;;37.90;15.32;;;;;;;-2.58;98.17;101022.81;5011422;28;20099;-73
2023/12/02 08:51:51;;;;;;;36.67;15.70;;;;;;;-2.57;97.67;101021.94;5015881;28;20053;-72
2023/12/02 08:54:17;;;;;;;32.38;14.10;;;;;;;-2.56;97.48;101026.94;4995186;28;20034;-72
2023/12/02 08:56:43;;;;;;;38.10;14.63;;;;;;;-2.58;97.52;101025.34;5014258;28;20038;-72
2023/12/02 08:59:08;;;;;;;35.60;15.73;;;;;;;-2.56;96.53;101031.22;5018503;28;20035;-72
2023/12/02 09:01:34;;;;;;;37.58;15.32;;;;;;;-2.59;96.80;101037.22;5015405;28;20546;-72
2023/12/02 09:03:59;;;;;;;29.65;14.23;;;;;;;-2.60;96.62;101035.59;5015882;28;20029;-72
2023/12/02 09:06:24;;;;;;;35.58;15.55;;;;;;;-2.59;96.93;101036.41;5016959;28;20033;-72
2023/12/02 09:08:51;;;;;;;46.17;21.20;;;;;;;-2.56;96.91;101033.75;5009763;28;20039;-72
2023/12/02 09:11:16;;;;;;;44.53;17.95;;;;;;;-2.55;95.94;101036.19;5014724;28;20117;-72
2023/12/02 09:13:47;;;;;;;43.13;18.80;;;;;;;-2.55;96.47;101041.28;5018992;28;20441;-73
2023/12/02 09:16:28;;;;;;;33.47;15.73;;;;;;;-2.53;96.17;101050.56;5029629;28;20030;-72
2023/12/02 09:18:53;;;;;;;37.05;15.15;;;;;;;-2.56;96.45;101052.34;5015331;28;20035;-72
2023/12/02 09:21:37;;;;;;;34.03;15.32;;;;;;;-2.47;96.28;101053.66;5014825;28;20116;-72
2023/12/02 09:24:04;;;;;;;31.42;13.02;;;;;;;-2.33;95.26;101054.78;5014464;28;20030;-72
2023/12/02 09:26:38;;;;;;;42.38;14.80;;;;;;;-2.28;94.25;101056.25;5014001;28;20037;-72
2023/12/02 09:29:04;;;;;;;33.03;15.13;;;;;;;-2.37;94.54;101060.00;5027484;28;20037;-73
2023/12/02 09:31:31;;;;;;;31.83;12.93;;;;;;;-2.22;93.37;101065.31;5013602;28;20034;-72
2023/12/02 09:34:02;;;;;;;37.33;14.45;;;;;;;-2.31;93.25;101063.97;5012913;28;20025;-72
2023/12/02 09:36:32;;;;;;;37.72;14.40;;;;;;;-2.31;93.46;101071.59;5027211;28;20492;-72
2023/12/02 09:39:09;;;;;;;35.38;14.93;;;;;;;-2.26;93.67;101072.25;5017169;28;20037;-72
2023/12/02 09:41:47;;;;;;;32.00;14.00;;;;;;;-2.24;93.82;101073.00;5014184;28;20030;-72
2023/12/02 09:44:45;;;;;;;33.10;14.18;;;;;;;-2.24;94.05;101069.59;4995938;28;20061;-72
2023/12/02 09:47:17;;;;;;;32.53;14.15;;;;;;;-2.24;94.27;101077.22;5000154;28;20041;-72
2023/12/02 09:49:52;;;;;;;56.05;22.88;;;;;;;-2.19;93.84;101067.69;5002355;28;20093;-71
2023/12/02 09:52:44;;;;;;;46.55;20.30;;;;;;;-2.24;93.54;101075.53;5007386;28;20057;-71
2023/12/02 09:55:09;;;;;;;49.65;22.80;;;;;;;-2.28;93.23;101066.41;5005491;28;20152;-72
2023/12/02 09:57:56;;;;;;;42.83;18.50;;;;;;;-2.25;94.08;101071.34;5007155;28;20564;-72
2023/12/02 10:00:26;;;;;;;37.15;16.95;;;;;;;-2.25;93.73;101073.88;5000733;28;20107;-72
2023/12/02 10:03:23;;;;;;;43.38;17.73;;;;;;;-2.27;93.33;101069.75;5025053;28;20038;-72
2023/12/02 10:06:04;;;;;;;37.75;17.00;;;;;;;-2.25;92.81;101067.97;5010767;28;20100;-72
2023/12/02 10:08:39;;;;;;;40.15;17.30;;;;;;;-2.22;92.93;101073.75;5012229;28;20508;-72
2023/12/02 10:11:07;;;;;;;47.38;23.20;;;;;;;-2.20;92.69;101071.97;5017515;28;20030;-72
2023/12/02 10:14:07;;;;;;;50.50;22.40;;;;;;;-2.20;92.47;101068.59;5012607;28;20018;-72
2023/12/02 10:16:36;;;;;;;43.70;18.13;;;;;;;-2.21;92.47;101062.69;4995544;28;20587;-73
2023/12/02 10:19:04;;;;;;;41.45;16.15;;;;;;;-2.08;91.86;101065.50;5015011;28;20114;-72
2023/12/02 10:21:32;;;;;;;32.08;14.77;;;;;;;-2.23;90.51;101061.91;5008511;28;20034;-72
2023/12/02 10:24:10;;;;;;;35.53;14.77;;;;;;;-2.27;90.69;101062.13;5016292;28;20044;-73
2023/12/02 10:26:58;;;;;;;32.83;14.95;;;;;;;-2.13;90.92;101062.34;5011702;28;20544;-72
2023/12/02 10:29:35;;;;;;;38.25;15.52;;;;;;;-1.94;91.34;101064.06;4995040;28;20057;-72
2023/12/02 10:32:26;;;;;;;39.10;16.30;;;;;;;-2.03;90.75;101058.50;5008203;28;20049;-73
2023/12/02 10:35:20;;;;;;;34.58;14.38;;;;;;;-2.11;91.57;101062.28;4974755;28;20067;-73
2023/12/02 10:37:53;;;;;;;37.33;15.88;;;;;;;-1.98;90.46;101053.22;5014471;28;20129;-72
2023/12/02 10:40:22;;;;;;;36.40;15.55;;;;;;;-2.03;89.72;101057.69;5012049;28;20455;-72
2023/12/02 10:43:22;;;;;;;37.97;16.90;;;;;;;-2.02;89.96;101051.69;5018362;28;20030;-72
2023/12/02 10:45:48;;;;;;;35.88;15.93;;;;;;;-2.05;89.08;101051.84;5012113;28;20037;-72
2023/12/02 10:48:15;;;;;;;42.70;18.55;;;;;;;-2.07;90.09;101046.00;4993275;28;20037;-72
2023/12/02 10:50:41;;;;;;;39.08;17.88;;;;;;;-2.11;90.36;101057.19;5010559;28;20046;-73
2023/12/02 10:53:09;;;;;;;35.83;14.55;;;;;;;-2.08;90.29;101055.34;5014543;28;20112;-73
2023/12/02 10:55:37;;;;;;;36.38;16.13;;;;;;;-2.10;90.16;101057.13;5018239;28;20042;-72
2023/12/02 10:58:07;;;;;;;41.10;18.05;;;;;;;-1.92;89.83;101062.28;5012084;28;20034;-72
2023/12/02 11:00:38;;;;;;;35.28;15.30;;;;;;;-2.00;89.98;101063.47;5008599;28;20045;-72
2023/12/02 11:03:25;;;;;;;39.87;16.57;;;;;;;-1.96;90.07;101069.22;5013956;28;20060;-74
2023/12/02 11:06:15;;;;;;;44.53;20.65;;;;;;;-1.82;89.53;101066.88;5012080;28;20497;-73
2023/12/02 11:08:53;;;;;;;58.25;28.35;;;;;;;-1.96;88.68;101067.53;5022705;28;20049;-73
2023/12/02 11:11:46;;;;;;;40.78;19.52;;;;;;;-1.96;89.03;101079.38;5007314;28;20042;-73